• Join FlightAware (Why Join?)
  • Login
  • US Flag 
05:02AM EDT


 

Airport Tracker/Info


-or-


 

Live Flight TrackerFlight Track Log ✈ UAL623 ✈ 10-May-2013 ✈ KMCO - KCLE

Flight Track Log - Related Links

Times and Time Zones

All times are in EDT time to prevent confusion due to time zone crossing. See the UAL623 flight status page for this flight to view local times or setup timezone preferences in your user account.

Time Position Orientation Groundspeed Altitude Reporting Facility
EDT Latitude Longitude Course Direction KTS MPH feet Rate Location/Type
11:29AM 28.4167 -81.3167 270° West 157 181 600  Level Orlando TRACON
11:29AM 28.4000 -81.3333 221° Southwest 181 208 1,600 2,160 Climbing Orlando TRACON
11:30AM 28.3333 -81.3667 204° Southwest 220 253 4,100 2,580 Climbing Orlando TRACON
11:31AM 28.3167 -81.4167 249° West 248 285 6,900 2,400 Climbing Orlando TRACON
11:32AM 28.4167 -81.8245 270° West  Level FlightAware Approximate
11:33AM 28.4167 -81.9557 270° West  Level FlightAware Approximate
11:33AM 28.3622 -81.5597 290° West 259 298 10,800  Level Jacksonville Center
11:34AM 28.4167 -82.0868 270° West  Level FlightAware Approximate
11:34AM 28.3903 -81.6608 288° West 294 338 12,300  Level Jacksonville Center
11:35AM 28.4183 -81.7714 286° West 340 391 14,800 2,340 Climbing Jacksonville Center
11:36AM 28.4464 -81.8844 286° West 368 423 17,000 1,920 Climbing Jacksonville Center
11:37AM 28.4764 -81.9975 287° West 378 435 18,700 1,620 Climbing Jacksonville Center
11:38AM 28.5086 -82.1131 288° West 378 435 20,300 1,740 Climbing Jacksonville Center
11:39AM 28.5383 -82.2261 287° West 386 444 22,200 1,620 Climbing Jacksonville Center
11:40AM 28.5725 -82.3464 288° West 397 457 23,600 1,560 Climbing Jacksonville Center
11:41AM 28.6042 -82.4717 286° West 403 464 25,400 1,200 Climbing Jacksonville Center
11:42AM 28.6336 -82.5944 285° West 403 464 26,000 840 Climbing Jacksonville Center
11:43AM 28.7111 -82.6961 311° West 387 445 27,100 900 Climbing Jacksonville Center
11:44AM 28.8219 -82.7433 340° North 378 435 27,900 360 Climbing Jacksonville Center
11:45AM 28.9303 -82.7931 338° Northwest 392 451 27,900  Level Jacksonville Center
11:46AM 29.0389 -82.8381 340° North 410 472 27,900  Level Jacksonville Center
11:47AM 29.1475 -82.8878 338° Northwest 415 478 27,900  Level Jacksonville Center
11:48AM 29.2561 -82.9331 340° North 415 478 27,900  Level Jacksonville Center
11:49AM 29.3647 -82.9831 338° Northwest 415 478 27,900  Level Jacksonville Center
11:50AM 29.4753 -83.0333 338° Northwest 415 478 28,000  Climbing Jacksonville Center
11:51AM 29.5794 -83.0789 339° North 426 490 28,000  Level Jacksonville Center
11:52AM 29.6922 -83.1292 339° North 432 497 28,000  Level Jacksonville Center
11:53AM 29.8006 -83.1750 340° North 432 497 28,000  Level Jacksonville Center
11:54AM 29.9092 -83.2256 338° Northwest 427 491 28,000 -60 Level Jacksonville Center
11:55AM 30.0197 -83.2739 339° North 427 491 27,900 -60 Descending Jacksonville Center
11:56AM 30.1281 -83.3200 340° North 427 491 27,900  Level Jacksonville Center
11:57AM 30.2364 -83.3686 339° North 422 486 27,900  Level Jacksonville Center
11:59AM 30.4531 -83.4661 339° North 417 480 27,900  Level Jacksonville Center
12:00PM 30.5636 -83.5175 338° Northwest 417 480 27,900  Level Jacksonville Center
12:01PM 30.6697 -83.5664 338° Northwest 417 480 28,000  Climbing Jacksonville Center
12:02PM 30.7803 -83.6131 340° North 412 474 28,000  Level Jacksonville Center
12:03PM 30.8864 -83.6672 336° Northwest 412 474 28,000  Level Jacksonville Center
12:04PM 30.9967 -83.7142 340° North 417 480 28,000  Level Jacksonville Center
12:05PM 31.1069 -83.7661 338° Northwest 417 480 28,000  Level Jacksonville Center
12:06PM 31.2172 -83.8158 339° North 417 480 28,000  Level Jacksonville Center
12:08PM 31.3939 -83.9003 338° Northwest 420 483 28,000  Level Atlanta Center
12:09PM 31.5025 -83.9511 338° Northwest 420 483 28,000  Level Atlanta Center
12:10PM 31.6192 -83.9828 347° North 415 478 28,000  Level Atlanta Center
12:11PM 31.7236 -84.0072 349° North 415 478 28,000  Level Atlanta Center
12:12PM 31.8406 -84.0317 350° North 420 483 28,000  Level Atlanta Center
12:13PM 31.9594 -84.0583 349° North 426 490 28,000  Level Atlanta Center
12:14PM 32.0764 -84.0831 350° North 426 490 28,000  Level Atlanta Center
12:15PM 32.1933 -84.1075 350° North 426 490 28,000  Level Atlanta Center
12:16PM 32.3100 -84.1347 349° North 426 490 28,000  Level Atlanta Center
12:17PM 32.4269 -84.1619 349° North 426 490 28,000  Level Atlanta Center
12:18PM 32.5439 -84.1892 349° North 426 490 28,000  Level Atlanta Center
12:19PM 32.6586 -84.2164 349° North 426 490 28,000  Level Atlanta Center
12:20PM 32.7756 -84.2414 350° North 426 490 28,000  Level Atlanta Center
12:21PM 32.9047 -84.2714 349° North 431 496 28,000  Level Atlanta Center
12:22PM 33.0092 -84.2939 350° North 426 490 28,000  Level Atlanta Center
12:23PM 33.1239 -84.3192 350° North 426 490 28,000  Level Atlanta Center
12:24PM 33.2408 -84.3467 349° North 426 490 28,000  Level Atlanta Center
12:25PM 33.3597 -84.3747 349° North 431 496 28,000  Level Atlanta Center
12:26PM 33.4764 -84.4000 350° North 431 496 28,000  Level Atlanta Center
12:27PM 33.5808 -84.4278 348° North 426 490 28,000  Level Atlanta Center
12:28PM 33.7103 -84.4183 North 421 484 28,000  Level Atlanta Center
12:29PM 33.8292 -84.3914 11° North 421 484 28,000 180 Level Atlanta Center
12:30PM 33.9442 -84.3617 12° North 421 484 28,400 480 Climbing Atlanta Center
12:31PM 34.0672 -84.3372 North 433 498 29,000 300 Climbing Atlanta Center
12:32PM 34.1883 -84.3050 12° North 440 506 29,000  Level Atlanta Center
12:33PM 34.3075 -84.2778 11° North 440 506 29,000  Level Atlanta Center
12:34PM 34.4286 -84.2478 12° North 440 506 29,000  Level Atlanta Center
12:35PM 34.5558 -84.2203 10° North 434 499 29,000  Level Atlanta Center
12:36PM 34.6750 -84.1928 11° North 428 493 29,000  Level Atlanta Center
12:37PM 34.7939 -84.1653 11° North 428 493 29,000  Level Atlanta Center
12:38PM 34.9150 -84.1375 11° North 428 493 29,000  Level Atlanta Center
12:39PM 35.0361 -84.1072 12° North 428 493 29,000  Level Atlanta Center
12:40PM 35.1550 -84.0794 11° North 433 498 29,000  Level Atlanta Center
12:41PM 35.2758 -84.0489 12° North 433 498 29,000  Level Atlanta Center
12:42PM 35.3950 -84.0208 11° North 433 498 29,000  Level Atlanta Center
12:43PM 35.5158 -83.9903 12° North 433 498 29,000  Level Atlanta Center
12:44PM 35.6347 -83.9622 11° North 433 498 29,000  Level Atlanta Center
12:45PM 35.7517 -83.9133 19° North 428 493 29,000  Level Atlanta Center
12:46PM 35.8661 -83.8517 24° Northeast 434 499 29,000  Level Atlanta Center
12:47PM 35.9789 -83.7897 24° Northeast 440 506 29,000  Level Atlanta Center
12:48PM 36.0933 -83.7303 23° Northeast 440 506 29,000  Level Atlanta Center
12:49PM 36.2078 -83.6681 24° Northeast 440 506 29,000  Level Atlanta Center
12:51PM 36.4056 -83.5556 25° Northeast 447 514 29,000  Level Indianapolis Center
12:52PM 36.5267 -83.4917 23° Northeast 447 514 29,000  Level Indianapolis Center
12:53PM 36.6414 -83.4286 24° Northeast 449 517 29,000  Level Indianapolis Center
12:54PM 36.7511 -83.3572 28° Northeast 443 510 29,000  Level Indianapolis Center
12:55PM 36.8797 -83.2739 27° Northeast 443 510 29,000  Level Indianapolis Center
12:56PM 36.9906 -83.2031 27° Northeast 442 509 29,000 -60 Level Indianapolis Center
12:57PM 37.1008 -83.1306 28° Northeast 442 509 28,900  Descending Indianapolis Center
12:58PM 37.2131 -83.0583 27° Northeast 449 517 29,000  Climbing Indianapolis Center
12:59PM 37.3242 -82.9853 28° Northeast 447 514 29,000  Level Indianapolis Center
01:00PM 37.4344 -82.9119 28° Northeast 446 513 29,000  Level Indianapolis Center
01:01PM 37.5447 -82.8378 28° Northeast 447 514 29,000 -780 Level Indianapolis Center
01:02PM 37.6797 -82.7844 17° North 433 498 27,400 -1,020 Descending Indianapolis Center
01:03PM 37.7950 -82.7592 10° North 422 486 27,000 -240 Descending Indianapolis Center
01:04PM 37.9122 -82.7294 11° North 428 493 27,000  Level Indianapolis Center
01:05PM 38.0297 -82.7031 10° North 428 493 27,000  Level Indianapolis Center
01:06PM 38.1469 -82.6758 10° North 428 493 27,000 -60 Level Indianapolis Center
01:07PM 38.2636 -82.6494 10° North 425 489 26,900  Descending Indianapolis Center
01:08PM 38.3997 -82.6186 10° North 426 490 27,000  Climbing Indianapolis Center
01:09PM 38.5186 -82.5911 10° North 430 495 27,000  Level Indianapolis Center
01:10PM 38.6364 -82.5644 10° North 430 495 27,000  Level Indianapolis Center
01:11PM 38.7578 -82.5350 11° North 433 498 27,000  Level Indianapolis Center
01:12PM 38.8753 -82.5083 10° North 428 493 27,000  Level Indianapolis Center
01:13PM 38.9947 -82.4808 10° North 432 497 27,000 -300 Level Indianapolis Center
01:14PM 39.1136 -82.4517 11° North 433 498 26,400 -1,260 Descending Indianapolis Center
01:15PM 39.2342 -82.4219 11° North 437 503 24,500 -1,200 Descending Indianapolis Center
01:16PM 39.3750 -82.3889 10° North 430 495 24,000 -300 Descending Indianapolis Center
01:17PM 39.4789 -82.3644 10° North 430 495 24,000 -60 Level Indianapolis Center
01:18PM 39.6164 -82.3319 10° North 428 493 23,900 -60 Descending Indianapolis Center
01:19PM 39.7342 -82.3031 11° North 428 493 23,900  Level Indianapolis Center
01:21PM 39.8517 -82.2739 11° North 428 493 23,900 -600 Level Indianapolis Center
01:22PM 39.9692 -82.2464 10° North 425 489 22,700 -1,560 Descending Indianapolis Center
01:23PM 40.0817 -82.2186 11° North 413 475 20,700 -1,800 Descending Indianapolis Center
01:24PM 40.1922 -82.1919 10° North 403 464 19,000 -840 Descending Indianapolis Center
01:25PM 40.3039 -82.1639 11° North 397 457 19,000 -840 Level Indianapolis Center
01:26PM 40.4336 -82.1328 10° North 400 460 17,300 -1,860 Descending Indianapolis Center
01:27PM 40.5300 -82.0567 31° Northeast 405 466 15,200 -1,260 Descending Indianapolis Center
01:28PM 40.6206 -81.9656 37° Northeast 405 466 14,800 -840 Descending Indianapolis Center
01:28PM 40.6722 -81.9164 36° Northeast 407 468 13,900 -1,500 Descending Cleveland Center
01:29PM 40.7208 -81.8653 39° Northeast 399 459 13,100 -1,620 Descending Cleveland Center
01:29PM 40.7669 -81.8222 35° Northeast 390 449 12,300 -1,500 Descending Cleveland Center
01:30PM 40.8514 -81.7386 37° Northeast 382 440 10,900 -1,200 Descending Cleveland Center
01:31PM 40.8850 -81.7008 40° Northeast 393 452 10,500 -1,020 Descending Cleveland Center
01:31PM 40.9336 -81.6550 35° Northeast 377 434 9,900 -540 Descending Cleveland Center
01:32PM 40.9711 -81.6281 28° Northeast 383 441 10,000 60 Climbing Cleveland Center
01:32PM 41.0275 -81.6428 349° North 355 409 10,000 60 Level Cleveland Center
01:33PM 41.0689 -81.6572 345° North 354 407 10,100 -120 Climbing Cleveland Center
01:33PM 41.1250 -81.6831 341° North 350 403 9,900 -240 Descending Cleveland Center
01:34PM 41.1603 -81.6972 343° North 348 400 9,900 -240 Level Cleveland Center
01:34PM 41.2122 -81.7203 342° North 311 358 9,700 -840 Descending Cleveland Center
01:35PM 41.2433 -81.7264 352° North 326 375 9,100 -1,620 Descending Cleveland Center
01:35PM 41.2933 -81.7494 341° North 301 346 8,100 -1,620 Descending Cleveland Center
01:36PM 41.3306 -81.7611 347° North 300 345 7,500 -1,020 Descending Cleveland Center
01:37PM 41.3828 -81.7619 359° North 308 354 7,000 -540 Descending Cleveland Center
01:37PM 41.4039 -81.7347 44° Northeast 274 315 7,000 -720 Level Cleveland Center
01:39PM 41.4719 -81.5892 58° Northeast 265 305 5,600 -780 Descending Cleveland Center
01:40PM 41.5325 -81.5733 11° North 238 274 4,900 -1,200 Descending Cleveland Center
01:41PM 41.5403 -81.6456 278° West 195 224 3,300 -960 Descending Cleveland Center
01:42PM 41.5106 -81.6978 233° Southwest 177 204 3,000 -300 Descending Cleveland Center
01:43PM 41.4808 -81.7472 231° Southwest 163 188 2,700 -300 Descending Cleveland Center